Terminal Aerodrome Forecast
Issued by NWS

Home | Current Version | Previous Version | Text Only | Print | Product List | Glossary On
Versions: 1 2 3 4 5 6 7 8 9 10 11 12 13 14 15 16
905
FTUS45 KVEF 252334
TAFBIH
TAF
KBIH 252334Z 2600/2624 36006KT P6SM VCSH BKN060 BKN080
     FM260100 10010KT P6SM VCTS BKN060 BKN080CB
      TEMPO 2601/2603 35025G35KT -TSRA BKN050CB
     FM260400 34009KT P6SM FEW060 BKN100
     FM261600 36010G18KT P6SM FEW100=

USA.gov is the U.S. government's official web portal to all federal, state and local government web resources and services.